createdAt,value
2023-03-21T00:01:49.999Z,7.80
2023-03-21T00:04:17.022Z,7.80
2023-03-21T00:06:44.331Z,7.70
2023-03-21T00:09:12.411Z,7.70
2023-03-21T00:11:39.588Z,7.60
2023-03-21T00:14:09.064Z,7.50
2023-03-21T00:16:37.169Z,7.50
2023-03-21T00:19:06.807Z,7.50
2023-03-21T00:21:55.532Z,7.50
2023-03-21T00:24:25.561Z,7.50
2023-03-21T00:26:52.560Z,7.50
2023-03-21T00:29:20.336Z,7.50
2023-03-21T00:31:47.452Z,7.50
2023-03-21T00:34:14.455Z,7.40
2023-03-21T00:36:41.887Z,7.50
2023-03-21T00:39:08.965Z,7.50
2023-03-21T00:41:42.847Z,7.50
2023-03-21T00:44:11.812Z,7.50
2023-03-21T00:46:57.429Z,7.50
2023-03-21T00:49:27.827Z,7.40
2023-03-21T00:51:57.295Z,7.40
2023-03-21T00:54:27.123Z,7.40
2023-03-21T00:56:54.275Z,7.40
2023-03-21T00:59:21.236Z,7.40
2023-03-21T01:01:48.259Z,7.40
2023-03-21T01:04:16.983Z,7.40
2023-03-21T01:06:44.525Z,7.40
2023-03-21T01:09:14.784Z,7.40
2023-03-21T01:11:42.390Z,7.40
2023-03-21T01:14:21.970Z,7.40
2023-03-21T01:16:50.351Z,7.30
2023-03-21T01:19:25.509Z,7.30
2023-03-21T01:21:56.015Z,7.30
2023-03-21T01:24:23.245Z,7.30
2023-03-21T01:26:50.409Z,7.20
2023-03-21T01:29:17.629Z,7.20
2023-03-21T01:31:45.305Z,7.30
2023-03-21T01:34:12.390Z,7.30
2023-03-21T01:36:40.240Z,7.30
2023-03-21T01:39:11.630Z,7.30
2023-03-21T01:41:43.418Z,7.30
2023-03-21T01:44:26.482Z,7.30
2023-03-21T01:47:12.152Z,7.40
2023-03-21T01:49:41.740Z,7.40
2023-03-21T01:52:37.636Z,7.40
2023-03-21T01:55:12.698Z,7.40
2023-03-21T01:58:04.953Z,7.40
2023-03-21T02:00:41.540Z,7.40
2023-03-21T02:03:34.943Z,7.40
2023-03-21T02:06:32.227Z,7.40
2023-03-21T02:09:10.123Z,7.40
2023-03-21T02:11:38.014Z,7.50
2023-03-21T02:14:07.185Z,7.40
2023-03-21T02:16:49.751Z,7.40
2023-03-21T02:19:29.505Z,7.40
2023-03-21T02:22:24.748Z,7.40
2023-03-21T02:25:01.312Z,7.40
2023-03-21T02:27:34.789Z,7.40
2023-03-21T02:30:02.056Z,7.50
2023-03-21T02:32:38.450Z,7.40
2023-03-21T02:35:11.939Z,7.40
2023-03-21T02:37:43.014Z,7.40
2023-03-21T02:40:20.834Z,7.30
2023-03-21T02:43:00.804Z,7.30
2023-03-21T02:45:41.707Z,7.30
2023-03-21T02:48:20.261Z,7.30
2023-03-21T02:50:55.488Z,7.30
2023-03-21T02:53:25.556Z,7.30
2023-03-21T02:55:54.187Z,7.30
2023-03-21T02:58:23.609Z,7.30
2023-03-21T03:00:56.336Z,7.40
2023-03-21T03:03:37.036Z,7.30
2023-03-21T03:06:09.480Z,7.30
2023-03-21T03:08:49.924Z,7.30
2023-03-21T03:11:31.661Z,7.30
2023-03-21T03:14:46.955Z,7.30
2023-03-21T03:17:11.144Z,7.30
2023-03-21T03:19:49.981Z,7.20
2023-03-21T03:22:25.149Z,7.30
2023-03-21T03:24:56.156Z,7.30
2023-03-21T03:27:29.898Z,7.30
2023-03-21T03:30:00.630Z,7.30
2023-03-21T03:32:35.661Z,7.20
2023-03-21T03:35:04.558Z,7.30
2023-03-21T03:37:34.402Z,7.30
2023-03-21T03:40:13.494Z,7.30
2023-03-21T03:42:49.972Z,7.30
2023-03-21T03:45:27.194Z,7.30
2023-03-21T03:48:04.880Z,7.30
2023-03-21T03:50:35.245Z,7.30
2023-03-21T03:53:13.008Z,7.30
2023-03-21T03:55:46.213Z,7.30
2023-03-21T03:58:23.641Z,7.30
2023-03-21T04:00:56.909Z,7.30
2023-03-21T04:03:24.390Z,7.30
2023-03-21T04:05:52.599Z,7.30
2023-03-21T04:08:19.689Z,7.30
2023-03-21T04:10:52.151Z,7.30
2023-03-21T04:13:19.848Z,7.30
2023-03-21T04:16:09.029Z,7.30
2023-03-21T04:18:36.145Z,7.30
2023-03-21T04:21:07.750Z,7.30
2023-03-21T04:23:35.921Z,7.30
2023-03-21T04:26:04.127Z,7.30
2023-03-21T04:28:48.339Z,7.30
2023-03-21T04:31:36.243Z,7.30
2023-03-21T04:34:10.116Z,7.30
2023-03-21T04:36:46.788Z,7.30
2023-03-21T04:39:15.030Z,7.20
2023-03-21T04:41:45.823Z,7.30
2023-03-21T04:44:13.746Z,7.30
2023-03-21T04:46:41.454Z,7.20
2023-03-21T04:49:09.578Z,7.20
2023-03-21T04:51:40.239Z,7.20
2023-03-21T04:56:43.022Z,7.10
2023-03-21T04:59:11.299Z,7.10
2023-03-21T05:01:38.632Z,7.00
2023-03-21T05:04:05.981Z,6.90
2023-03-21T05:06:35.174Z,6.80
2023-03-21T05:09:05.664Z,6.60
2023-03-21T05:11:37.764Z,6.50
2023-03-21T05:14:06.186Z,6.40
2023-03-21T05:16:35.757Z,6.30
2023-03-21T05:19:06.104Z,6.20
2023-03-21T05:21:42.611Z,6.20
2023-03-21T05:24:19.489Z,6.10
2023-03-21T05:26:56.390Z,6.00
2023-03-21T05:29:28.869Z,5.90
2023-03-21T05:32:01.293Z,5.90
2023-03-21T05:34:28.643Z,5.80
2023-03-21T05:36:56.417Z,5.70
2023-03-21T05:39:26.280Z,5.70
2023-03-21T05:42:04.015Z,5.60
2023-03-21T05:44:31.370Z,5.60
2023-03-21T05:47:00.290Z,5.60
2023-03-21T05:49:37.103Z,5.60
2023-03-21T05:52:04.965Z,5.70
2023-03-21T05:54:32.110Z,5.60
2023-03-21T05:57:00.658Z,5.60
2023-03-21T05:59:46.471Z,5.60
2023-03-21T06:02:13.770Z,5.50
2023-03-21T06:04:42.081Z,5.50
2023-03-21T06:07:09.601Z,5.50
2023-03-21T06:09:39.576Z,5.50
2023-03-21T06:12:09.167Z,5.50
2023-03-21T06:14:43.184Z,5.50
2023-03-21T06:17:19.472Z,5.50
2023-03-21T06:19:51.192Z,5.50
2023-03-21T06:22:24.411Z,5.50
2023-03-21T06:24:51.497Z,5.50
2023-03-21T06:27:18.983Z,5.50
2023-03-21T06:29:51.181Z,5.50
2023-03-21T06:32:19.216Z,5.50
2023-03-21T06:34:48.328Z,5.60
2023-03-21T06:37:16.248Z,5.60
2023-03-21T06:39:43.541Z,5.70
2023-03-21T06:42:11.747Z,5.80
2023-03-21T06:44:38.869Z,5.80
2023-03-21T06:47:10.240Z,5.90
2023-03-21T06:49:38.032Z,5.90
2023-03-21T06:52:11.016Z,5.90
2023-03-21T06:54:38.716Z,6.00
2023-03-21T06:57:11.581Z,6.00
2023-03-21T06:59:41.638Z,6.00
2023-03-21T07:02:35.068Z,5.90
2023-03-21T07:05:08.624Z,5.90
2023-03-21T07:07:37.091Z,6.00
2023-03-21T07:10:04.568Z,6.00
2023-03-21T07:12:40.471Z,6.00
2023-03-21T07:15:21.927Z,6.00
2023-03-21T07:17:49.409Z,6.00
2023-03-21T07:20:16.510Z,6.00
2023-03-21T07:22:43.713Z,6.00
2023-03-21T07:25:11.042Z,6.00
2023-03-21T07:27:41.517Z,6.10
2023-03-21T07:30:09.661Z,6.10
2023-03-21T07:32:40.492Z,6.10
2023-03-21T07:35:09.275Z,6.10
2023-03-21T07:37:38.102Z,6.10
2023-03-21T07:40:12.575Z,6.00
2023-03-21T07:42:40.894Z,6.00
2023-03-21T07:45:10.061Z,5.90
2023-03-21T07:47:39.336Z,5.90
2023-03-21T07:50:06.389Z,5.90
2023-03-21T07:52:33.828Z,5.90
2023-03-21T07:55:00.765Z,5.90
2023-03-21T07:57:28.069Z,5.90
2023-03-21T07:59:55.068Z,5.90
2023-03-21T08:02:22.385Z,6.00
2023-03-21T08:04:52.502Z,6.00
2023-03-21T08:07:19.709Z,6.00
2023-03-21T08:09:46.704Z,6.00
2023-03-21T08:12:14.049Z,6.10
2023-03-21T08:14:41.202Z,6.10
2023-03-21T08:17:09.704Z,6.00
2023-03-21T08:19:37.635Z,6.00
2023-03-21T08:22:06.799Z,6.00
2023-03-21T08:24:34.297Z,5.90
2023-03-21T08:27:01.897Z,5.90
2023-03-21T08:29:29.057Z,5.90
2023-03-21T08:31:56.263Z,5.80
2023-03-21T08:34:23.217Z,5.70
2023-03-21T08:36:50.478Z,5.60
2023-03-21T08:39:17.499Z,5.60
2023-03-21T08:41:44.931Z,5.60
2023-03-21T08:44:11.934Z,5.60
2023-03-21T08:46:39.110Z,5.60
2023-03-21T08:49:06.399Z,5.50
2023-03-21T08:51:33.956Z,5.40
2023-03-21T08:54:00.901Z,5.40
2023-03-21T08:56:27.965Z,5.30
2023-03-21T08:58:54.971Z,5.30
2023-03-21T09:01:22.332Z,5.20
2023-03-21T09:03:49.247Z,5.30
2023-03-21T09:06:17.533Z,5.30
2023-03-21T09:08:46.492Z,5.30
2023-03-21T09:11:14.402Z,5.30
2023-03-21T09:13:41.529Z,5.30
2023-03-21T09:16:08.859Z,5.30
2023-03-21T09:18:47.313Z,5.40
2023-03-21T09:21:16.120Z,5.40
2023-03-21T09:23:45.020Z,5.30
2023-03-21T09:26:12.661Z,5.30
2023-03-21T09:28:40.664Z,5.30
2023-03-21T09:31:11.458Z,5.30
2023-03-21T09:33:40.538Z,5.20
2023-03-21T09:36:12.138Z,5.20
2023-03-21T09:38:40.789Z,5.10
2023-03-21T09:41:14.220Z,5.20
2023-03-21T09:44:01.515Z,5.10
2023-03-21T09:46:39.373Z,5.20
2023-03-21T09:49:07.989Z,5.20
2023-03-21T09:51:41.402Z,5.30
2023-03-21T09:54:28.225Z,5.20
2023-03-21T09:56:57.810Z,5.30
2023-03-21T09:59:45.168Z,5.20
2023-03-21T10:02:32.341Z,5.20
2023-03-21T10:05:00.369Z,5.30
2023-03-21T10:07:30.909Z,5.30
2023-03-21T10:09:59.870Z,5.30
2023-03-21T10:12:30.837Z,5.20
2023-03-21T10:14:59.305Z,5.20
2023-03-21T10:17:29.020Z,5.20
2023-03-21T10:20:16.214Z,5.20
2023-03-21T10:22:46.132Z,5.30
2023-03-21T10:25:18.559Z,5.30
2023-03-21T10:27:46.189Z,5.30
2023-03-21T10:30:20.173Z,5.30
2023-03-21T10:32:47.346Z,5.10
2023-03-21T10:35:14.510Z,5.10
2023-03-21T10:37:41.645Z,5.10
2023-03-21T10:40:15.576Z,5.20
2023-03-21T10:42:43.871Z,5.30
2023-03-21T10:45:18.858Z,5.50
2023-03-21T10:47:48.252Z,5.60
2023-03-21T10:50:16.532Z,5.70
2023-03-21T10:53:03.900Z,5.70
2023-03-21T10:55:33.089Z,5.70
2023-03-21T10:58:03.060Z,5.70
2023-03-21T11:00:33.992Z,5.80
2023-03-21T11:03:01.610Z,5.80
2023-03-21T11:05:34.508Z,5.80
2023-03-21T11:08:07.090Z,5.80
2023-03-21T11:10:35.664Z,5.90
2023-03-21T11:13:06.002Z,5.90
2023-03-21T11:15:38.387Z,6.00
2023-03-21T11:18:18.801Z,6.20
2023-03-21T11:20:51.901Z,6.40
2023-03-21T11:23:20.886Z,6.40
2023-03-21T11:25:49.379Z,6.40
2023-03-21T11:28:18.382Z,6.30
2023-03-21T11:30:56.136Z,6.20
2023-03-21T11:33:27.182Z,6.10
2023-03-21T11:36:02.106Z,6.00
2023-03-21T11:38:36.189Z,6.10
2023-03-21T11:41:03.481Z,6.10
2023-03-21T11:43:32.494Z,6.20
2023-03-21T11:46:05.737Z,6.40
2023-03-21T11:48:43.118Z,6.50
2023-03-21T11:51:39.214Z,6.60
2023-03-21T11:54:16.021Z,6.50
2023-03-21T11:56:45.425Z,6.50
2023-03-21T11:59:17.411Z,6.40
2023-03-21T12:01:57.414Z,6.30
2023-03-21T12:04:41.396Z,6.20
2023-03-21T12:07:27.375Z,6.30
2023-03-21T12:09:54.382Z,6.40
2023-03-21T12:12:41.062Z,6.50
2023-03-21T12:15:26.113Z,6.50
2023-03-21T12:18:00.712Z,6.40
2023-03-21T12:20:30.836Z,6.40
2023-03-21T12:23:13.050Z,6.40
2023-03-21T12:25:45.553Z,6.40
2023-03-21T12:28:33.529Z,6.20
2023-03-21T12:31:00.592Z,6.20
2023-03-21T12:33:27.828Z,6.10
2023-03-21T12:36:00.966Z,6.00
2023-03-21T12:38:28.162Z,6.00
2023-03-21T12:41:13.738Z,6.00
2023-03-21T12:43:47.178Z,6.10
2023-03-21T12:46:21.128Z,5.90
2023-03-21T12:48:51.423Z,5.70
2023-03-21T12:51:21.289Z,5.50
2023-03-21T12:53:51.531Z,5.40
2023-03-21T12:56:27.650Z,5.50
2023-03-21T12:58:57.973Z,5.50
2023-03-21T13:01:25.223Z,5.50
2023-03-21T13:04:12.849Z,5.40
2023-03-21T13:06:40.206Z,5.40
2023-03-21T13:09:13.466Z,5.30
2023-03-21T13:11:40.628Z,5.40
2023-03-21T13:14:24.088Z,5.60
2023-03-21T13:17:00.963Z,5.60
2023-03-21T13:19:38.223Z,5.50
2023-03-21T13:22:08.306Z,5.50
2023-03-21T13:24:41.005Z,5.40
2023-03-21T13:27:20.121Z,5.30
2023-03-21T13:29:49.874Z,5.20
2023-03-21T13:32:23.356Z,5.30
2023-03-21T13:35:00.778Z,5.30
2023-03-21T13:37:34.677Z,5.40
2023-03-21T13:40:10.841Z,5.20
2023-03-21T13:42:43.216Z,5.20
2023-03-21T13:45:11.255Z,5.30
2023-03-21T13:47:42.826Z,5.30
2023-03-21T13:50:18.824Z,5.20
2023-03-21T13:53:08.997Z,5.20
2023-03-21T13:55:38.375Z,5.30
2023-03-21T13:58:31.620Z,5.30
2023-03-21T14:01:23.854Z,5.20
2023-03-21T14:03:59.107Z,5.20
2023-03-21T14:06:31.440Z,5.10
2023-03-21T14:08:58.741Z,5.20
2023-03-21T14:11:40.024Z,5.30
2023-03-21T14:14:11.647Z,5.30
2023-03-21T14:16:38.814Z,5.30
2023-03-21T14:19:06.121Z,5.20
2023-03-21T14:21:34.308Z,5.10
2023-03-21T14:24:12.684Z,5.00
2023-03-21T14:26:44.592Z,5.00
2023-03-21T14:29:26.067Z,5.10
2023-03-21T14:31:56.638Z,5.20
2023-03-21T14:34:26.202Z,5.20
2023-03-21T14:36:58.226Z,5.10
2023-03-21T14:39:30.564Z,5.00
2023-03-21T14:42:02.460Z,4.90
2023-03-21T14:44:52.988Z,4.90
2023-03-21T14:47:26.727Z,4.80
2023-03-21T14:49:53.771Z,4.80
2023-03-21T14:52:23.841Z,4.80
2023-03-21T14:54:52.208Z,4.90
2023-03-21T14:57:21.420Z,4.80
2023-03-21T14:59:52.112Z,4.80
2023-03-21T15:02:19.138Z,4.80
2023-03-21T15:04:50.686Z,4.80
2023-03-21T15:07:28.463Z,4.90
2023-03-21T15:10:00.989Z,4.90
2023-03-21T15:12:28.288Z,5.00
2023-03-21T15:14:55.769Z,4.90
2023-03-21T15:17:23.813Z,4.90
2023-03-21T15:19:50.859Z,4.90
2023-03-21T15:22:25.368Z,4.90
2023-03-21T15:24:54.312Z,4.90
2023-03-21T15:27:23.916Z,4.90
2023-03-21T15:29:53.881Z,4.70
2023-03-21T15:32:22.956Z,4.70
2023-03-21T15:34:51.781Z,4.80
2023-03-21T15:37:23.211Z,4.70
2023-03-21T15:39:52.483Z,4.70
2023-03-21T15:42:27.605Z,4.70
2023-03-21T15:45:00.937Z,4.70
2023-03-21T15:47:40.944Z,4.70
2023-03-21T15:50:09.306Z,4.70
2023-03-21T15:52:36.857Z,4.70
2023-03-21T15:55:16.819Z,4.70
2023-03-21T15:57:46.998Z,4.70
2023-03-21T16:00:18.569Z,4.50
2023-03-21T16:02:46.401Z,4.50
2023-03-21T16:05:40.047Z,4.50
2023-03-21T16:08:28.429Z,4.50
2023-03-21T16:11:06.141Z,4.40
2023-03-21T16:13:33.263Z,4.30
2023-03-21T16:16:00.432Z,4.20
2023-03-21T16:18:29.569Z,4.20
2023-03-21T16:20:59.216Z,4.20
2023-03-21T16:23:26.950Z,4.20
2023-03-21T16:25:57.910Z,4.20
2023-03-21T16:28:25.232Z,4.20
2023-03-21T16:30:52.244Z,4.20
2023-03-21T16:33:19.405Z,4.30
2023-03-21T16:35:46.992Z,4.20
2023-03-21T16:38:14.365Z,4.20
2023-03-21T16:40:42.175Z,4.20
2023-03-21T16:43:09.807Z,4.20
2023-03-21T16:45:37.180Z,4.30
2023-03-21T16:48:04.478Z,4.30
2023-03-21T16:50:36.323Z,4.30
2023-03-21T16:53:03.629Z,4.20
2023-03-21T16:55:33.052Z,4.20
2023-03-21T16:58:00.125Z,4.20
2023-03-21T17:00:29.201Z,4.10
2023-03-21T17:02:57.055Z,4.10
2023-03-21T17:05:27.926Z,4.10
2023-03-21T17:07:55.398Z,4.10
2023-03-21T17:10:26.602Z,4.10
2023-03-21T17:12:54.018Z,4.00
2023-03-21T17:15:21.530Z,4.10
2023-03-21T17:17:52.182Z,4.10
2023-03-21T17:20:21.813Z,4.10
2023-03-21T17:22:49.246Z,4.00
2023-03-21T17:25:16.660Z,4.00
2023-03-21T17:27:43.778Z,4.00
2023-03-21T17:30:20.785Z,4.00
2023-03-21T17:32:48.990Z,4.00
2023-03-21T17:35:16.439Z,3.90
2023-03-21T17:37:50.178Z,3.80
2023-03-21T17:40:22.869Z,3.80
2023-03-21T17:42:50.997Z,3.70
2023-03-21T17:45:18.404Z,3.70
2023-03-21T17:47:45.838Z,3.70
2023-03-21T17:50:18.043Z,3.70
2023-03-21T17:52:45.593Z,3.80
2023-03-21T17:55:13.540Z,3.80
2023-03-21T17:57:41.202Z,3.80
2023-03-21T18:00:12.627Z,3.80
2023-03-21T18:02:40.688Z,3.80
2023-03-21T18:05:08.690Z,3.80
2023-03-21T18:08:08.083Z,3.70
2023-03-21T18:10:25.792Z,3.70
2023-03-21T18:12:56.068Z,3.70
2023-03-21T18:15:24.261Z,3.70
2023-03-21T18:17:51.583Z,3.70
2023-03-21T18:20:21.136Z,3.80
2023-03-21T18:22:48.383Z,3.80
2023-03-21T18:25:16.461Z,3.90
2023-03-21T18:28:06.303Z,3.90
2023-03-21T18:30:52.960Z,3.90
2023-03-21T18:33:19.400Z,4.00
2023-03-21T18:35:46.951Z,4.00
2023-03-21T18:38:14.311Z,4.00
2023-03-21T18:40:41.394Z,4.00
2023-03-21T18:43:55.927Z,4.00
2023-03-21T18:45:56.992Z,4.10
2023-03-21T18:48:24.290Z,4.10
2023-03-21T18:50:51.664Z,4.10
2023-03-21T18:53:19.042Z,4.10
2023-03-21T18:55:48.224Z,4.10
2023-03-21T18:58:17.244Z,4.10
2023-03-21T19:00:44.604Z,4.10
2023-03-21T19:03:24.794Z,4.20
2023-03-21T19:06:00.825Z,4.20
2023-03-21T19:08:28.257Z,4.10
2023-03-21T19:10:59.625Z,4.10
2023-03-21T19:13:28.793Z,4.20
2023-03-21T19:15:56.327Z,4.10
2023-03-21T19:18:54.157Z,4.20
2023-03-21T19:21:12.127Z,4.20
2023-03-21T19:24:18.058Z,4.20
2023-03-21T19:26:26.232Z,4.20
2023-03-21T19:28:53.952Z,4.20
2023-03-21T19:31:21.467Z,4.30
2023-03-21T19:33:48.712Z,4.20
2023-03-21T19:36:21.791Z,4.10
2023-03-21T19:38:50.069Z,4.00
2023-03-21T19:41:17.249Z,4.00
2023-03-21T19:43:53.749Z,3.90
2023-03-21T19:46:24.767Z,3.80
2023-03-21T19:48:56.526Z,3.70
2023-03-21T19:51:30.079Z,3.70
2023-03-21T19:53:58.678Z,3.70
2023-03-21T19:56:27.363Z,3.80
2023-03-21T19:58:55.490Z,3.80
2023-03-21T20:01:24.092Z,3.70
2023-03-21T20:03:51.585Z,3.70
2023-03-21T20:06:18.783Z,3.60
2023-03-21T20:09:34.145Z,3.60
2023-03-21T20:11:34.116Z,3.40
2023-03-21T20:14:03.400Z,3.60
2023-03-21T20:16:35.282Z,3.60
2023-03-21T20:19:03.816Z,3.60
2023-03-21T20:21:36.576Z,3.60
2023-03-21T20:24:13.013Z,3.60
2023-03-21T20:26:40.316Z,3.40
2023-03-21T20:29:56.329Z,3.40
2023-03-21T20:31:54.675Z,3.50
2023-03-21T20:34:21.873Z,3.50
2023-03-21T20:36:49.193Z,3.50
2023-03-21T20:39:16.150Z,3.60
2023-03-21T20:41:43.107Z,3.60
2023-03-21T20:44:42.183Z,3.50
2023-03-21T20:47:00.130Z,3.50
2023-03-21T20:49:28.376Z,3.60
2023-03-21T20:54:44.034Z,3.60
2023-03-21T20:57:11.127Z,3.70
2023-03-21T20:59:38.572Z,3.60
2023-03-21T21:02:05.532Z,3.60
2023-03-21T21:05:15.633Z,3.70
2023-03-21T21:07:21.227Z,3.70
2023-03-21T21:09:48.879Z,3.70
2023-03-21T21:12:16.604Z,3.60
2023-03-21T21:14:44.240Z,3.60
2023-03-21T21:17:46.972Z,3.70
2023-03-21T21:20:01.737Z,3.70
2023-03-21T21:22:29.088Z,3.70
2023-03-21T21:24:56.363Z,3.60
2023-03-21T21:27:23.440Z,3.60
2023-03-21T21:29:50.560Z,3.60
2023-03-21T21:32:19.346Z,3.50
2023-03-21T21:34:47.619Z,3.60
2023-03-21T21:37:15.516Z,3.60
2023-03-21T21:39:42.496Z,3.60
2023-03-21T21:42:09.506Z,3.70
2023-03-21T21:44:37.645Z,3.60
2023-03-21T21:47:08.618Z,3.50
2023-03-21T21:49:36.147Z,3.60
2023-03-21T21:52:06.087Z,3.50
2023-03-21T21:54:34.335Z,3.50
2023-03-21T21:57:01.363Z,3.60
2023-03-21T21:59:29.017Z,3.70
2023-03-21T22:01:56.878Z,3.70
2023-03-21T22:04:27.855Z,3.80
2023-03-21T22:06:55.430Z,3.80
2023-03-21T22:09:23.088Z,3.80
2023-03-21T22:11:50.049Z,3.80
2023-03-21T22:14:17.572Z,3.80
2023-03-21T22:16:44.765Z,3.80
2023-03-21T22:19:12.300Z,3.90
2023-03-21T22:21:39.285Z,4.00
2023-03-21T22:24:06.859Z,4.00
2023-03-21T22:26:33.924Z,4.10
2023-03-21T22:29:01.567Z,4.10
2023-03-21T22:31:28.780Z,4.00
2023-03-21T22:33:56.227Z,4.10
2023-03-21T22:36:23.297Z,4.10
2023-03-21T22:38:50.283Z,4.10
2023-03-21T22:41:17.490Z,4.10
2023-03-21T22:43:44.407Z,4.20
2023-03-21T22:46:11.510Z,4.20
2023-03-21T22:48:38.466Z,4.20
2023-03-21T22:51:05.744Z,4.10
2023-03-21T22:53:32.693Z,4.10
2023-03-21T22:55:59.774Z,4.10
2023-03-21T22:58:26.777Z,4.10
2023-03-21T23:00:53.886Z,4.20
2023-03-21T23:03:21.168Z,4.20
2023-03-21T23:05:48.446Z,4.20
2023-03-21T23:08:15.473Z,4.20
2023-03-21T23:10:48.268Z,4.20
2023-03-21T23:13:15.279Z,4.20
2023-03-21T23:15:43.116Z,4.20
2023-03-21T23:18:10.566Z,4.30
2023-03-21T23:20:38.250Z,4.30
2023-03-21T23:23:05.508Z,4.20
2023-03-21T23:25:33.787Z,4.10
2023-03-21T23:28:01.066Z,4.10
2023-03-21T23:30:28.130Z,4.10
2023-03-21T23:32:56.221Z,4.10
2023-03-21T23:35:23.787Z,4.10
2023-03-21T23:37:52.802Z,3.90
2023-03-21T23:40:20.974Z,3.90
2023-03-21T23:42:47.981Z,4.00
2023-03-21T23:45:15.073Z,4.00
2023-03-21T23:47:42.102Z,3.90
2023-03-21T23:50:10.313Z,3.90
2023-03-21T23:52:37.578Z,4.00
2023-03-21T23:55:05.172Z,4.10
2023-03-21T23:57:34.485Z,4.10
